Time;durP1;ratioP1;P1;durP2;ratioP2;P2;SDS_P1;SDS_P2;PMS_P1;PMS_P2;Temp;Humidity;BMP_temperature;BMP_pressure;BME280_temperature;BME280_humidity;BME280_pressure;Samples;Min_cycle;Max_cycle;Signal;HPM_P1;HPM_P2
2022/03/11 00:02:02;;;;;;;;;;;;;;;17.88;42.00;101863.78;4966273;28;19982;-79
2022/03/11 00:04:27;;;;;;;;;;;;;;;17.89;41.74;101863.78;4948857;29;20369;-78
2022/03/11 00:06:52;;;;;;;;;;;;;;;17.88;41.84;101858.59;4932623;29;20013;-78
2022/03/11 00:09:18;;;;;;;;;;;;;;;17.87;41.97;101856.81;4942961;28;19926;-78
2022/03/11 00:11:43;;;;;;;;;;;;;;;17.87;41.88;101857.69;4951059;28;20000;-78
2022/03/11 00:14:08;;;;;;;;;;;;;;;17.87;41.88;101855.09;4967675;28;19922;-78
2022/03/11 00:16:34;;;;;;;;;;;;;;;17.87;41.79;101854.22;4951372;28;19927;-78
2022/03/11 00:18:59;;;;;;;;;;;;;;;17.85;41.82;101854.19;4952182;28;19918;-78
2022/03/11 00:21:25;;;;;;;;;;;;;;;17.86;42.08;101853.34;4932161;28;19977;-78
2022/03/11 00:23:50;;;;;;;;;;;;;;;17.85;41.74;101843.78;4952752;28;19918;-78
2022/03/11 00:26:15;;;;;;;;;;;;;;;17.85;41.82;101850.72;4968390;28;19941;-78
2022/03/11 00:28:41;;;;;;;;;;;;;;;17.86;41.95;101844.69;4949303;29;20375;-78
2022/03/11 00:31:06;;;;;;;;;;;;;;;17.84;41.92;101847.28;4934483;29;19926;-79
2022/03/11 00:33:31;;;;;;;;;;;;;;;17.84;41.78;101842.06;4952288;29;19925;-78
2022/03/11 00:35:57;;;;;;;;;;;;;;;17.84;41.61;101847.28;4938501;29;20021;-78
2022/03/11 00:38:23;;;;;;;;;;;;;;;17.85;41.66;101845.53;4955613;29;19950;-78
2022/03/11 00:40:48;;;;;;;;;;;;;;;17.83;41.79;101848.16;4938663;29;19918;-78
2022/03/11 00:43:13;;;;;;;;;;;;;;;17.83;41.61;101842.94;4953168;29;19914;-78
2022/03/11 00:45:38;;;;;;;;;;;;;;;17.83;41.53;101837.72;4957001;28;19918;-78
2022/03/11 00:48:04;;;;;;;;;;;;;;;17.82;41.66;101838.56;4955547;28;19928;-80
2022/03/11 00:50:29;;;;;;;;;;;;;;;17.83;41.68;101839.44;4943488;28;19946;-78
2022/03/11 00:52:54;;;;;;;;;;;;;;;17.81;41.77;101834.22;4965239;29;19918;-78
2022/03/11 00:55:20;;;;;;;;;;;;;;;17.82;41.45;101822.94;4938650;29;19968;-78
2022/03/11 00:57:45;;;;;;;;;;;;;;;17.82;41.36;101827.28;4946963;28;19985;-78
2022/03/11 01:00:10;;;;;;;;;;;;;;;17.81;41.72;101825.50;4956674;28;19925;-78
2022/03/11 01:02:37;;;;;;;;;;;;;;;17.80;41.71;101816.81;4976527;28;19914;-79
2022/03/11 01:05:06;;;;;;;;;;;;;;;17.80;41.69;101816.81;4959621;29;19914;-79
2022/03/11 01:07:32;;;;;;;;;;;;;;;17.81;41.15;101817.69;4974237;29;19914;-78
2022/03/11 01:09:57;;;;;;;;;;;;;;;17.80;41.51;101813.38;4955586;29;19921;-78
2022/03/11 01:12:22;;;;;;;;;;;;;;;17.80;41.22;101816.81;4960745;29;19925;-78
2022/03/11 01:14:48;;;;;;;;;;;;;;;17.80;41.37;101808.16;4960985;29;19915;-79
2022/03/11 01:17:13;;;;;;;;;;;;;;;17.79;41.41;101798.59;4957931;28;19981;-78
2022/03/11 01:19:39;;;;;;;;;;;;;;;17.78;41.27;101800.31;4947056;29;19918;-79
2022/03/11 01:22:04;;;;;;;;;;;;;;;17.79;41.53;101798.59;4955395;28;20014;-79
2022/03/11 01:24:30;;;;;;;;;;;;;;;17.78;41.46;101802.94;4939752;29;19934;-79
2022/03/11 01:26:55;;;;;;;;;;;;;;;17.78;41.50;101800.31;4939435;29;19962;-78
2022/03/11 01:29:20;;;;;;;;;;;;;;;17.78;41.62;101796.88;4959763;28;19929;-78
2022/03/11 01:31:45;;;;;;;;;;;;;;;17.78;41.25;101783.84;4957965;29;19919;-78
2022/03/11 01:34:11;;;;;;;;;;;;;;;17.77;41.52;101789.91;4955362;28;19927;-78
2022/03/11 01:36:36;;;;;;;;;;;;;;;17.77;41.37;101776.88;4955335;28;19949;-78
2022/03/11 01:39:01;;;;;;;;;;;;;;;17.77;41.56;101782.97;4955999;28;20024;-78
2022/03/11 01:41:27;;;;;;;;;;;;;;;17.77;41.33;101782.09;4988992;28;19918;-79
2022/03/11 01:43:53;;;;;;;;;;;;;;;17.76;41.43;101773.41;4956724;28;19926;-79
2022/03/11 01:46:19;;;;;;;;;;;;;;;17.75;41.13;101771.69;4953575;29;19914;-79
2022/03/11 01:48:44;;;;;;;;;;;;;;;17.75;41.51;101771.69;4953567;29;19918;-79
2022/03/11 01:51:09;;;;;;;;;;;;;;;17.74;41.43;101763.88;4943051;29;20346;-79
2022/03/11 01:53:35;;;;;;;;;;;;;;;17.74;41.52;101758.66;4952230;28;19993;-78
2022/03/11 01:56:01;;;;;;;;;;;;;;;17.74;41.26;101759.53;4971355;28;19923;-79
2022/03/11 01:58:26;;;;;;;;;;;;;;;17.73;41.53;101755.19;4956351;28;19966;-79
2022/03/11 02:00:51;;;;;;;;;;;;;;;17.73;41.19;101751.72;4966379;29;20293;-79
2022/03/11 02:03:16;;;;;;;;;;;;;;;17.73;41.40;101749.13;4952975;29;20012;-79
2022/03/11 02:05:43;;;;;;;;;;;;;;;17.72;41.32;101740.41;4936784;29;19923;-79
2022/03/11 02:08:08;;;;;;;;;;;;;;;17.74;41.26;101743.03;4951857;29;20285;-79
2022/03/11 02:10:34;;;;;;;;;;;;;;;17.72;41.27;101729.13;4955847;28;19973;-79
2022/03/11 02:13:03;;;;;;;;;;;;;;;17.72;41.40;101734.34;4955119;28;19923;-78
2022/03/11 02:15:28;;;;;;;;;;;;;;;17.70;41.17;101731.72;4963979;28;19914;-79
2022/03/11 02:17:53;;;;;;;;;;;;;;;17.71;41.31;101730.03;4971277;28;19992;-79
2022/03/11 02:20:19;;;;;;;;;;;;;;;17.70;41.21;101729.13;4970035;28;19918;-78
2022/03/11 02:22:48;;;;;;;;;;;;;;;17.71;41.06;101719.59;4939322;28;19922;-79
2022/03/11 02:25:16;;;;;;;;;;;;;;;17.69;41.40;101723.06;4987552;28;19914;-79
2022/03/11 02:27:42;;;;;;;;;;;;;;;17.68;41.57;101721.34;4969299;28;19945;-78
2022/03/11 02:30:11;;;;;;;;;;;;;;;17.69;41.21;101714.38;4981212;28;19950;-78
2022/03/11 02:32:37;;;;;;;;;;;;;;;17.69;41.01;101711.78;4951993;29;20341;-79
2022/03/11 02:35:02;;;;;;;;;;;;;;;17.68;41.23;101704.81;4950654;29;19923;-79
2022/03/11 02:37:27;;;;;;;;;;;;;;;17.68;41.16;101710.03;4952271;29;19922;-82
2022/03/11 02:39:55;;;;;;;;;;;;;;;17.68;41.42;101702.22;4975538;29;19941;-83
2022/03/11 02:42:20;;;;;;;;;;;;;;;17.67;41.11;101708.31;4953450;28;19922;-83
2022/03/11 02:44:46;;;;;;;;;;;;;;;17.67;41.25;101705.69;4961573;28;19918;-82
2022/03/11 02:47:11;;;;;;;;;;;;;;;17.66;41.27;101701.38;4947173;29;19946;-83
2022/03/11 02:49:36;;;;;;;;;;;;;;;17.67;41.12;101695.28;4953858;28;19925;-83
2022/03/11 02:52:07;;;;;;;;;;;;;;;17.66;41.01;101698.78;4976287;28;20012;-83
2022/03/11 02:54:32;;;;;;;;;;;;;;;17.65;41.28;101695.28;4959277;28;19929;-82
2022/03/11 02:56:58;;;;;;;;;;;;;;;17.65;41.34;101694.41;4956580;29;19907;-83
2022/03/11 02:59:24;;;;;;;;;;;;;;;17.65;41.11;101694.41;4963951;28;19899;-83
2022/03/11 03:01:49;;;;;;;;;;;;;;;17.64;41.09;101693.56;4978293;28;19914;-83
2022/03/11 03:04:15;;;;;;;;;;;;;;;17.64;41.13;101692.69;4978310;28;19914;-83
2022/03/11 03:06:40;;;;;;;;;;;;;;;17.65;41.05;101689.19;4976970;28;19914;-83
2022/03/11 03:09:06;;;;;;;;;;;;;;;17.64;40.84;101690.09;4956946;29;19921;-82
2022/03/11 03:11:31;;;;;;;;;;;;;;;17.64;40.92;101684.88;4955893;29;19949;-82
2022/03/11 03:13:56;;;;;;;;;;;;;;;17.63;41.03;101678.78;4956802;29;19915;-83
2022/03/11 03:16:22;;;;;;;;;;;;;;;17.63;40.75;101683.13;4949591;28;19976;-83
2022/03/11 03:18:47;;;;;;;;;;;;;;;17.62;41.34;101684.88;4948878;28;19918;-82
2022/03/11 03:21:13;;;;;;;;;;;;;;;17.63;40.74;101677.91;4966389;28;19918;-82
2022/03/11 03:23:38;;;;;;;;;;;;;;;17.62;40.93;101678.78;4941222;29;19922;-82
2022/03/11 03:26:03;;;;;;;;;;;;;;;17.62;41.06;101676.19;4960634;29;19925;-82
2022/03/11 03:28:28;;;;;;;;;;;;;;;17.61;40.88;101671.84;4944545;29;19945;-81
2022/03/11 03:30:54;;;;;;;;;;;;;;;17.61;40.96;101670.09;4968455;28;19914;-83
2022/03/11 03:33:19;;;;;;;;;;;;;;;17.60;41.00;101673.56;4956795;29;20034;-83
2022/03/11 03:35:44;;;;;;;;;;;;;;;17.61;40.90;101677.03;4957875;29;19914;-82
2022/03/11 03:38:10;;;;;;;;;;;;;;;17.60;40.95;101670.97;4945104;28;19926;-83
2022/03/11 03:40:35;;;;;;;;;;;;;;;17.60;40.62;101675.31;4995285;28;19986;-83
2022/03/11 03:43:01;;;;;;;;;;;;;;;17.59;41.16;101668.34;4976670;28;19989;-82
2022/03/11 03:45:27;;;;;;;;;;;;;;;17.58;40.63;101672.69;4972331;28;19919;-83
2022/03/11 03:47:52;;;;;;;;;;;;;;;17.59;40.99;101673.56;4961431;28;19922;-83
2022/03/11 03:50:17;;;;;;;;;;;;;;;17.58;40.98;101670.09;4977070;28;19914;-83
2022/03/11 03:52:43;;;;;;;;;;;;;;;17.57;40.91;101670.97;4976817;28;19914;-82
2022/03/11 03:55:08;;;;;;;;;;;;;;;17.57;40.99;101670.06;4959979;28;19918;-83
2022/03/11 03:57:34;;;;;;;;;;;;;;;17.58;41.08;101671.84;4974085;28;19919;-82
2022/03/11 03:59:59;;;;;;;;;;;;;;;17.57;40.78;101678.78;4957979;28;19922;-83
2022/03/11 04:02:24;;;;;;;;;;;;;;;17.57;40.78;101667.47;4960655;29;19926;-83
2022/03/11 04:04:50;;;;;;;;;;;;;;;17.56;40.85;101669.22;4941301;29;19922;-82
2022/03/11 04:07:15;;;;;;;;;;;;;;;17.56;40.91;101657.94;4939741;29;19922;-82
2022/03/11 04:09:41;;;;;;;;;;;;;;;17.54;41.09;101657.94;4949312;28;19919;-83
2022/03/11 04:12:06;;;;;;;;;;;;;;;17.54;40.85;101650.13;4964324;28;19918;-83
2022/03/11 04:14:32;;;;;;;;;;;;;;;17.55;40.92;101653.59;4967822;29;19930;-84
2022/03/11 04:16:57;;;;;;;;;;;;;;;17.54;41.01;101654.47;4946637;29;19922;-83
2022/03/11 04:19:22;;;;;;;;;;;;;;;17.53;40.70;101643.19;4948607;28;19914;-83
2022/03/11 04:21:47;;;;;;;;;;;;;;;17.53;40.73;101643.19;4963342;29;19915;-82
2022/03/11 04:24:14;;;;;;;;;;;;;;;17.53;40.75;101645.78;4946640;29;19925;-83
2022/03/11 04:26:44;;;;;;;;;;;;;;;17.53;41.03;101642.31;4981515;28;19914;-83
2022/03/11 04:29:09;;;;;;;;;;;;;;;17.53;40.67;101629.28;4981526;28;19914;-83
2022/03/11 04:31:34;;;;;;;;;;;;;;;17.52;40.88;101627.56;4964080;28;19929;-83
2022/03/11 04:34:01;;;;;;;;;;;;;;;17.51;40.90;101624.09;4962565;29;19915;-82
2022/03/11 04:36:28;;;;;;;;;;;;;;;17.51;40.94;101629.31;4960878;29;19902;-83
2022/03/11 04:38:53;;;;;;;;;;;;;;;17.49;40.61;101618.03;4977202;28;19922;-82
2022/03/11 04:41:19;;;;;;;;;;;;;;;17.51;40.45;101625.81;4972641;28;19918;-83
2022/03/11 04:43:45;;;;;;;;;;;;;;;17.49;40.38;101618.03;4980225;28;19918;-83
2022/03/11 04:46:13;;;;;;;;;;;;;;;17.50;40.75;101619.75;4994565;28;19914;-83
2022/03/11 04:48:41;;;;;;;;;;;;;;;17.50;40.84;101618.88;4978431;28;19914;-83
2022/03/11 04:51:06;;;;;;;;;;;;;;;17.50;40.72;101621.50;4978232;28;19926;-82
2022/03/11 04:53:32;;;;;;;;;;;;;;;17.49;40.55;101623.22;4968073;29;19918;-83
2022/03/11 04:55:57;;;;;;;;;;;;;;;17.48;40.83;101619.75;4959200;29;20374;-83
2022/03/11 04:58:22;;;;;;;;;;;;;;;17.48;40.76;101624.06;4965246;29;19898;-83
2022/03/11 05:00:48;;;;;;;;;;;;;;;17.48;40.43;101624.06;4966924;28;19925;-82
2022/03/11 05:03:13;;;;;;;;;;;;;;;17.47;40.90;101620.59;4984085;28;19918;-82
2022/03/11 05:05:39;;;;;;;;;;;;;;;17.47;40.35;101617.16;4978175;28;19914;-82
2022/03/11 05:08:05;;;;;;;;;;;;;;;17.47;40.52;101615.41;4970143;29;19921;-83
2022/03/11 05:10:30;;;;;;;;;;;;;;;17.46;40.63;101611.09;4965009;29;19909;-82
2022/03/11 05:12:56;;;;;;;;;;;;;;;17.46;40.55;101608.47;4974515;28;20005;-83
2022/03/11 05:15:24;;;;;;;;;;;;;;;17.45;40.93;101604.13;4979322;28;19941;-82
2022/03/11 05:17:50;;;;;;;;;;;;;;;17.46;40.63;101610.19;4974938;29;19918;-82
2022/03/11 05:20:15;;;;;;;;;;;;;;;17.45;40.49;101605.88;4959069;28;19994;-82
2022/03/11 05:22:42;;;;;;;;;;;;;;;17.45;40.83;101603.25;4991483;28;19937;-82
2022/03/11 05:25:07;;;;;;;;;;;;;;;17.44;40.44;101602.41;4977730;28;19918;-82
2022/03/11 05:30:09;;;;;;;;;;;;;;;17.43;40.69;101598.03;5790031;23;19938;-85
2022/03/11 05:32:54;;;;;;;;;;;;;;;17.43;40.56;101600.66;4983037;28;19910;-88
2022/03/11 05:35:21;;;;;;;;;;;;;;;17.43;40.47;101616.25;5039307;23;21025;-82
2022/03/11 05:37:49;;;;;;;;;;;;;;;17.44;40.38;101601.50;4963017;28;19930;-85
2022/03/11 05:40:14;;;;;;;;;;;;;;;17.43;40.62;101598.03;4963384;28;19923;-83
2022/03/11 05:42:40;;;;;;;;;;;;;;;17.43;40.32;101598.03;4953186;29;19922;-81
2022/03/11 05:45:07;;;;;;;;;;;;;;;17.43;40.25;101599.78;4953149;29;19965;-81
2022/03/11 05:47:32;;;;;;;;;;;;;;;17.42;40.38;101593.72;4954733;29;19919;-81
2022/03/11 05:49:58;;;;;;;;;;;;;;;17.42;40.41;101596.31;4952918;29;19921;-81
2022/03/11 05:52:23;;;;;;;;;;;;;;;17.42;40.67;101598.03;4937909;29;19941;-80
2022/03/11 05:54:48;;;;;;;;;;;;;;;17.41;40.38;101597.16;4938210;29;19925;-81
2022/03/11 05:57:14;;;;;;;;;;;;;;;17.42;40.49;101590.22;4947173;28;19918;-87
2022/03/11 05:59:56;;;;;;;;;;;;;;;17.42;40.30;101596.31;5039495;23;19950;-88
2022/03/11 06:14:53;;;;;;;;;;;;;;;17.49;41.44;101576.38;5353186;23;19926;-80
2022/03/11 06:17:19;;;;;;;;;;;;;;;17.47;41.21;101578.97;4995594;28;19910;-84
2022/03/11 06:20:12;;;;;;;;;;;;;;;17.48;41.46;101574.63;5000278;28;19944;-85
2022/03/11 06:25:56;;;;;;;;;;;;;;;17.50;41.66;101579.84;4979482;28;19905;-84
2022/03/11 06:31:36;;;;;;;;;;;;;;;17.51;41.60;101587.66;4939196;29;19989;-82
2022/03/11 06:34:20;;;;;;;;;;;;;;;17.52;41.70;101588.53;4977069;28;19979;-86
2022/03/11 06:37:06;;;;;;;;;;;;;;;17.53;41.65;101585.94;4975207;29;19918;-86
2022/03/11 06:39:31;;;;;;;;;;;;;;;17.54;41.67;101581.59;4975055;29;19914;-79
2022/03/11 06:42:21;;;;;;;;;;;;;;;17.54;41.42;101581.59;4958762;28;19929;-79
2022/03/11 06:45:01;;;;;;;;;;;;;;;17.55;41.43;101585.94;5067964;23;19922;-82
2022/03/11 06:47:27;;;;;;;;;;;;;;;17.56;41.55;101580.72;4982594;28;19926;-83
2022/03/11 06:50:19;;;;;;;;;;;;;;;17.58;41.58;101586.81;4983077;28;19921;-83
2022/03/11 06:53:08;;;;;;;;;;;;;;;17.58;41.66;101578.16;4999301;28;19918;-83
2022/03/11 06:55:45;;;;;;;;;;;;;;;17.60;41.16;101574.69;4958958;29;19950;-83
2022/03/11 06:58:20;;;;;;;;;;;;;;;17.61;41.26;101580.75;4944371;29;19970;-84
2022/03/11 07:00:51;;;;;;;;;;;;;;;17.62;41.58;101574.69;4928684;29;19954;-83
2022/03/11 07:14:35;;;;;;;;;;;;;;;17.66;41.19;101566.03;5374739;23;19958;-83
2022/03/11 07:20:05;;;;;;;;;;;;;;;17.67;41.21;101560.78;4938357;29;19938;-82
2022/03/11 07:22:51;;;;;;;;;;;;;;;17.69;41.26;101555.59;4924757;29;19904;-84
2022/03/11 07:25:36;;;;;;;;;;;;;;;17.69;41.03;101560.81;4939630;29;19919;-84
2022/03/11 07:31:05;;;;;;;;;;;;;;;17.94;40.61;101556.50;4930257;29;19974;-79
2022/03/11 07:33:30;;;;;;;;;;;;;;;18.18;40.09;101547.84;4916714;29;19911;-81
2022/03/11 07:38:42;;;;;;;;;;;;;;;18.37;39.81;101553.88;4934795;29;19969;-79
2022/03/11 07:44:13;;;;;;;;;;;;;;;18.00;40.72;101551.31;4938852;29;20000;-81
2022/03/11 07:46:38;;;;;;;;;;;;;;;17.96;40.84;101546.09;4934325;29;19923;-82
2022/03/11 07:52:28;;;;;;;;;;;;;;;17.92;41.01;101539.16;4998254;28;20312;-83
2022/03/11 07:54:53;;;;;;;;;;;;;;;17.93;41.04;101546.13;4977588;28;19929;-78
2022/03/11 07:57:43;;;;;;;;;;;;;;;18.14;40.52;101538.31;4993964;28;19918;-80
2022/03/11 08:00:09;;;;;;;;;;;;;;;18.78;39.33;101536.47;4977168;28;19953;-81
2022/03/11 08:02:36;;;;;;;;;;;;;;;18.95;38.76;101539.88;4997956;28;19922;-82
2022/03/11 08:08:06;;;;;;;;;;;;;;;19.17;38.61;101524.97;4996053;28;19933;-82
2022/03/11 08:10:41;;;;;;;;;;;;;;;19.24;38.60;101515.38;4980814;28;19950;-81
2022/03/11 08:13:06;;;;;;;;;;;;;;;19.27;38.66;101523.19;4972104;28;19918;-82
2022/03/11 08:21:16;;;;;;;;;;;;;;;19.46;38.67;101508.28;4988060;28;19933;-80
2022/03/11 08:23:42;;;;;;;;;;;;;;;19.60;38.40;101513.41;4981266;28;20281;-80
2022/03/11 08:26:09;;;;;;;;;;;;;;;19.61;38.33;101507.31;4947471;28;19918;-80
2022/03/11 08:28:34;;;;;;;;;;;;;;;19.64;38.08;101504.66;4980639;28;19914;-80
2022/03/11 08:31:00;;;;;;;;;;;;;;;19.63;37.93;101502.94;4981865;28;19949;-80
2022/03/11 08:33:25;;;;;;;;;;;;;;;19.65;37.92;101504.66;4948361;28;19926;-79
2022/03/11 08:35:51;;;;;;;;;;;;;;;19.66;37.84;101490.75;4946439;28;20045;-78
2022/03/11 08:38:16;;;;;;;;;;;;;;;19.62;37.71;101498.59;4948411;28;19922;-79
2022/03/11 08:40:42;;;;;;;;;;;;;;;19.61;37.76;101486.44;4962645;28;19914;-79
2022/03/11 08:43:07;;;;;;;;;;;;;;;19.56;37.87;101493.44;4963611;28;19981;-79
2022/03/11 08:45:32;;;;;;;;;;;;;;;19.53;37.85;101489.97;4964161;28;20004;-79
2022/03/11 08:47:58;;;;;;;;;;;;;;;19.46;38.14;101483.03;4982427;28;19973;-79
2022/03/11 08:50:23;;;;;;;;;;;;;;;19.39;38.21;101475.28;4964925;28;19918;-79
2022/03/11 08:52:49;;;;;;;;;;;;;;;19.37;38.24;101477.88;4981261;28;20373;-77
2022/03/11 08:55:15;;;;;;;;;;;;;;;19.33;38.46;101478.78;4945868;28;19970;-79
2022/03/11 08:57:40;;;;;;;;;;;;;;;19.30;38.49;101477.06;4990808;28;19918;-80
2022/03/11 09:00:08;;;;;;;;;;;;;;;19.23;38.58;101483.22;4978494;28;19918;-81
2022/03/11 09:02:37;;;;;;;;;;;;;;;19.24;38.54;101465.81;4977615;28;19938;-80
2022/03/11 09:05:02;;;;;;;;;;;;;;;19.17;38.60;101477.16;4987779;28;19925;-80
2022/03/11 09:07:29;;;;;;;;;;;;;;;19.14;38.70;101480.66;4975089;28;19914;-80
2022/03/11 09:09:55;;;;;;;;;;;;;;;19.09;38.71;101474.59;4962562;28;19945;-80
2022/03/11 09:12:20;;;;;;;;;;;;;;;19.04;38.82;101476.38;4977047;28;19914;-80
2022/03/11 09:14:45;;;;;;;;;;;;;;;19.01;38.76;101474.66;4961954;28;20021;-80
2022/03/11 09:17:10;;;;;;;;;;;;;;;18.98;38.90;101471.16;4962013;28;19922;-80
2022/03/11 09:19:36;;;;;;;;;;;;;;;18.96;38.80;101473.78;4957343;28;20393;-77
2022/03/11 09:22:01;;;;;;;;;;;;;;;18.95;38.78;101471.19;4989484;28;19941;-77
2022/03/11 09:24:27;;;;;;;;;;;;;;;18.90;38.97;101466.88;4952962;28;19918;-79
2022/03/11 09:26:52;;;;;;;;;;;;;;;18.90;38.62;101459.06;4952726;28;19918;-79
2022/03/11 09:29:17;;;;;;;;;;;;;;;18.85;38.79;101455.56;4969655;28;19925;-80
2022/03/11 09:31:42;;;;;;;;;;;;;;;18.84;38.86;101453.00;4955359;28;20016;-80
2022/03/11 09:34:08;;;;;;;;;;;;;;;18.82;38.84;101458.22;4956118;28;19918;-80
2022/03/11 09:36:33;;;;;;;;;;;;;;;18.80;38.91;101456.50;4971440;28;19922;-80
2022/03/11 09:38:58;;;;;;;;;;;;;;;18.79;38.85;101450.41;4969650;28;19941;-79
2022/03/11 09:41:25;;;;;;;;;;;;;;;18.78;38.99;101440.00;4971238;28;19918;-80
2022/03/11 09:43:51;;;;;;;;;;;;;;;18.77;39.10;101433.88;4972571;28;19921;-80
2022/03/11 09:46:16;;;;;;;;;;;;;;;18.76;38.81;101433.88;4988852;28;19923;-80
2022/03/11 09:48:42;;;;;;;;;;;;;;;18.74;39.06;101431.28;4970213;28;19918;-79
2022/03/11 09:51:11;;;;;;;;;;;;;;;18.73;39.22;101426.94;4970412;28;19921;-79
2022/03/11 09:53:36;;;;;;;;;;;;;;;18.70;39.13;101421.72;4969334;28;20316;-79
2022/03/11 09:56:02;;;;;;;;;;;;;;;18.69;39.18;101431.28;4971318;28;19915;-79
2022/03/11 09:58:28;;;;;;;;;;;;;;;18.67;39.14;101425.22;4969788;28;19925;-81
2022/03/11 10:00:53;;;;;;;;;;;;;;;18.67;39.06;101422.63;4969522;28;19918;-79
2022/03/11 10:03:18;;;;;;;;;;;;;;;18.67;39.20;101432.19;4970123;28;19926;-79
2022/03/11 10:05:51;;;;;;;;;;;;;;;18.63;39.40;101428.72;4954025;28;20332;-79
2022/03/11 10:08:17;;;;;;;;;;;;;;;18.63;39.10;101423.50;4987014;28;19946;-79
2022/03/11 10:10:43;;;;;;;;;;;;;;;18.63;39.07;101418.28;4986003;28;19918;-79
2022/03/11 10:13:10;;;;;;;;;;;;;;;18.62;39.08;101419.16;4971230;28;19937;-81
2022/03/11 10:15:35;;;;;;;;;;;;;;;18.63;39.22;101420.88;4972431;28;20009;-79
2022/03/11 10:18:03;;;;;;;;;;;;;;;18.61;39.12;101417.41;4957457;28;19922;-79
2022/03/11 10:20:29;;;;;;;;;;;;;;;18.62;39.16;101411.34;4971764;28;19925;-80
2022/03/11 10:22:55;;;;;;;;;;;;;;;18.60;39.13;101407.03;4968800;28;19914;-79
2022/03/11 10:25:20;;;;;;;;;;;;;;;18.59;39.24;101389.63;4952416;28;19925;-79
2022/03/11 10:27:55;;;;;;;;;;;;;;;18.58;39.29;101395.75;4986773;28;19990;-80
2022/03/11 10:30:20;;;;;;;;;;;;;;;18.57;39.25;101394.00;4990372;28;19921;-79
2022/03/11 10:32:51;;;;;;;;;;;;;;;18.57;39.19;101383.56;4954428;28;20016;-80
2022/03/11 10:35:20;;;;;;;;;;;;;;;18.56;39.24;101387.91;4971936;28;19918;-79
2022/03/11 10:37:55;;;;;;;;;;;;;;;18.56;39.33;101387.91;4971491;28;19929;-80
2022/03/11 10:40:21;;;;;;;;;;;;;;;18.55;39.17;101378.34;4972209;28;19922;-80
2022/03/11 10:42:46;;;;;;;;;;;;;;;18.55;39.27;101367.91;4956336;28;19981;-80
2022/03/11 10:45:13;;;;;;;;;;;;;;;18.55;39.05;101369.66;4953634;28;19925;-80
2022/03/11 10:47:41;;;;;;;;;;;;;;;18.53;39.33;101361.88;4969795;28;20198;-80
2022/03/11 10:50:08;;;;;;;;;;;;;;;18.54;39.04;101370.56;4970929;28;19918;-80
2022/03/11 10:52:44;;;;;;;;;;;;;;;18.53;39.16;101372.31;4971823;28;19915;-80
2022/03/11 10:55:18;;;;;;;;;;;;;;;18.53;39.18;101369.69;4974056;28;19972;-80
2022/03/11 10:57:44;;;;;;;;;;;;;;;18.53;39.11;101366.19;4991944;28;19918;-80
2022/03/11 11:00:20;;;;;;;;;;;;;;;18.52;38.97;101370.56;4957589;28;19918;-80
2022/03/11 11:02:45;;;;;;;;;;;;;;;18.53;39.17;101355.78;4973995;28;19914;-80
2022/03/11 11:05:11;;;;;;;;;;;;;;;18.53;38.96;101361.88;4990880;28;19938;-80
2022/03/11 11:07:36;;;;;;;;;;;;;;;18.54;39.11;101362.75;4990723;28;19914;-80
2022/03/11 11:10:02;;;;;;;;;;;;;;;18.53;39.37;101354.06;4989005;28;19918;-80
2022/03/11 11:12:28;;;;;;;;;;;;;;;18.53;39.35;101363.59;4972595;28;19914;-77
2022/03/11 11:14:53;;;;;;;;;;;;;;;18.54;39.30;101347.09;4954141;28;19949;-78
2022/03/11 11:17:19;;;;;;;;;;;;;;;18.53;39.24;101341.03;4987984;28;19973;-78
2022/03/11 11:19:46;;;;;;;;;;;;;;;18.54;39.22;101347.09;4969754;28;19929;-78
2022/03/11 11:22:12;;;;;;;;;;;;;;;18.53;39.20;101346.25;4970576;28;19925;-78
2022/03/11 11:24:39;;;;;;;;;;;;;;;18.56;39.30;101334.94;4971153;28;19993;-78
2022/03/11 11:27:05;;;;;;;;;;;;;;;18.54;39.22;101339.28;4964123;28;19914;-77
2022/03/11 11:29:33;;;;;;;;;;;;;;;18.55;39.41;101328.81;4964169;28;19941;-78
2022/03/11 11:32:00;;;;;;;;;;;;;;;18.56;39.54;101332.31;4947613;28;19964;-79
2022/03/11 11:34:26;;;;;;;;;;;;;;;18.58;39.41;101327.97;4963323;28;19914;-79
2022/03/11 11:36:52;;;;;;;;;;;;;;;18.57;39.64;101331.44;4963205;28;19918;-79
2022/03/11 11:39:17;;;;;;;;;;;;;;;18.57;39.50;101328.81;4962561;28;20254;-78
2022/03/11 11:41:50;;;;;;;;;;;;;;;18.58;39.77;101325.38;4964914;28;19922;-79
2022/03/11 11:44:16;;;;;;;;;;;;;;;18.59;40.01;101324.47;4963171;28;19914;-77
2022/03/11 11:46:41;;;;;;;;;;;;;;;18.58;40.00;101318.41;4976844;28;19969;-77
2022/03/11 11:49:13;;;;;;;;;;;;;;;18.59;40.09;101317.50;4960888;28;19996;-77
2022/03/11 11:51:38;;;;;;;;;;;;;;;18.60;40.32;101314.03;4960728;28;19921;-77
2022/03/11 11:54:13;;;;;;;;;;;;;;;18.60;40.33;101298.41;4977393;28;19910;-78
2022/03/11 11:56:45;;;;;;;;;;;;;;;18.61;40.36;101300.13;4960633;28;19918;-77
2022/03/11 11:59:16;;;;;;;;;;;;;;;18.62;40.66;101298.41;4946325;28;19918;-79
2022/03/11 12:01:42;;;;;;;;;;;;;;;18.62;40.77;101291.44;4980431;28;20005;-79
2022/03/11 12:04:20;;;;;;;;;;;;;;;18.64;40.84;101291.41;4980228;28;19914;-79
2022/03/11 12:06:57;;;;;;;;;;;;;;;18.64;41.09;101283.59;4982906;28;19981;-79
2022/03/11 12:09:38;;;;;;;;;;;;;;;18.65;41.15;101277.53;4982888;28;20373;-79
2022/03/11 12:12:04;;;;;;;;;;;;;;;18.66;40.96;101274.03;4965904;28;19914;-79
2022/03/11 12:14:29;;;;;;;;;;;;;;;18.66;41.30;101271.41;4982371;28;19921;-79
2022/03/11 12:16:59;;;;;;;;;;;;;;;18.66;41.34;101256.66;4948554;28;20021;-79
2022/03/11 12:19:46;;;;;;;;;;;;;;;18.66;41.31;101268.81;4963370;28;19929;-80
2022/03/11 12:22:31;;;;;;;;;;;;;;;18.67;41.48;101258.38;4979289;28;19937;-79
2022/03/11 12:25:05;;;;;;;;;;;;;;;18.67;41.33;101247.94;4962009;28;19914;-79
2022/03/11 12:27:49;;;;;;;;;;;;;;;18.68;41.53;101252.31;4962761;28;20333;-79
2022/03/11 12:30:15;;;;;;;;;;;;;;;18.68;41.67;101241.88;4964586;28;19914;-80
2022/03/11 12:32:41;;;;;;;;;;;;;;;18.69;41.71;101234.91;4965053;28;20407;-80
2022/03/11 12:35:06;;;;;;;;;;;;;;;18.70;41.83;101234.91;4964488;28;20293;-81
2022/03/11 12:37:33;;;;;;;;;;;;;;;18.70;41.76;101231.41;4948636;28;19946;-80
2022/03/11 12:40:00;;;;;;;;;;;;;;;18.71;41.84;101227.94;4980662;28;20303;-80
2022/03/11 12:42:39;;;;;;;;;;;;;;;18.71;41.89;101228.81;4950363;28;20274;-80
2022/03/11 12:45:06;;;;;;;;;;;;;;;18.73;41.96;101222.69;4949291;28;19918;-80
2022/03/11 12:47:38;;;;;;;;;;;;;;;18.73;41.99;101217.47;4964498;28;19918;-81
2022/03/11 12:50:05;;;;;;;;;;;;;;;18.72;42.02;101211.41;4981107;28;19918;-79
2022/03/11 12:52:37;;;;;;;;;;;;;;;18.70;41.98;101211.44;4966103;28;19966;-80
2022/03/11 12:55:38;;;;;;;;;;;;;;;18.70;41.75;101208.84;4965956;28;19914;-81
2022/03/11 12:58:05;;;;;;;;;;;;;;;18.70;41.88;101210.56;4931616;29;19966;-80
2022/03/11 13:00:32;;;;;;;;;;;;;;;18.70;41.67;101201.03;4963754;28;19937;-79
2022/03/11 13:02:58;;;;;;;;;;;;;;;18.72;41.77;101206.19;4967523;28;19915;-79
2022/03/11 13:05:24;;;;;;;;;;;;;;;18.71;41.92;101191.44;4974310;28;19982;-80
2022/03/11 13:07:50;;;;;;;;;;;;;;;18.73;41.98;101194.03;4976943;28;19937;-79
2022/03/11 13:10:22;;;;;;;;;;;;;;;18.80;42.10;101201.81;4972726;28;19918;-81
2022/03/11 13:12:47;;;;;;;;;;;;;;;18.90;42.15;101199.97;4971889;28;19987;-80
2022/03/11 13:15:16;;;;;;;;;;;;;;;18.90;42.23;101187.84;5227430;23;19924;-80
2022/03/11 13:17:46;;;;;;;;;;;;;;;18.86;41.82;101188.75;5041271;23;20009;-81
2022/03/11 13:20:30;;;;;;;;;;;;;;;18.83;41.83;101193.97;4973907;28;19926;-82
2022/03/11 13:22:56;;;;;;;;;;;;;;;18.83;41.85;101183.53;4970726;28;20456;-81
2022/03/11 13:25:25;;;;;;;;;;;;;;;18.82;41.88;101188.78;4972549;28;19914;-83
2022/03/11 13:27:54;;;;;;;;;;;;;;;18.81;42.00;101190.50;5149424;23;19934;-82
2022/03/11 13:30:52;;;;;;;;;;;;;;;18.81;41.81;101184.44;4964959;29;19942;-81
2022/03/11 13:33:22;;;;;;;;;;;;;;;18.82;41.76;101180.97;4909872;29;19982;-81
2022/03/11 13:36:05;;;;;;;;;;;;;;;18.80;41.68;101174.91;4951905;29;19915;-81